Time;durP1;ratioP1;P1;durP2;ratioP2;P2;SDS_P1;SDS_P2;PMS_P1;PMS_P2;Temp;Humidity;BMP_temperature;BMP_pressure;BME280_temperature;BME280_humidity;BME280_pressure;Samples;Min_cycle;Max_cycle;Signal;HPM_P1;HPM_P2
2024/01/22 00:01:15;;;;;;;31.80;13.65;;;;;;;-6.78;100.00;100740.81;5072298;28;20038;-78
2024/01/22 00:03:40;;;;;;;29.98;13.93;;;;;;;-7.11;100.00;100687.66;5071175;28;20477;-77
2024/01/22 00:06:06;;;;;;;25.35;11.57;;;;;;;-6.65;100.00;100758.28;5070995;28;20416;-77
2024/01/22 00:08:31;;;;;;;28.10;13.38;;;;;;;-7.16;100.00;100666.19;5071126;28;20028;-77
2024/01/22 00:10:57;;;;;;;31.48;14.48;;;;;;;-6.87;100.00;100706.72;5070746;28;20025;-77
2024/01/22 00:13:22;;;;;;;26.75;12.65;;;;;;;-6.58;100.00;100742.66;5070956;28;20036;-79
2024/01/22 00:15:48;;;;;;;25.85;11.02;;;;;;;-6.49;100.00;100764.41;5071774;28;20555;-77
2024/01/22 00:18:13;;;;;;;29.50;13.05;;;;;;;-6.85;100.00;100702.69;5091402;28;20048;-79
2024/01/22 00:20:39;;;;;;;26.95;11.18;;;;;;;-6.48;100.00;100768.72;5090907;28;20052;-78
2024/01/22 00:23:05;;;;;;;30.95;13.23;;;;;;;-6.42;100.00;100756.84;5073918;28;20020;-77
2024/01/22 00:25:30;;;;;;;32.65;13.43;;;;;;;-6.88;100.00;100667.50;5074212;28;20031;-77
2024/01/22 00:27:56;;;;;;;25.55;11.55;;;;;;;-6.15;100.00;100788.78;5074130;28;20085;-79
2024/01/22 00:30:21;;;;;;;27.38;12.10;;;;;;;-6.26;100.00;100753.84;5091661;28;20459;-78
2024/01/22 00:32:47;;;;;;;22.25;10.70;;;;;;;-6.23;100.00;100745.22;5074124;28;20028;-76
2024/01/22 00:35:12;;;;;;;25.90;10.35;;;;;;;-6.05;100.00;100765.34;5073697;28;20092;-78
2024/01/22 00:37:38;;;;;;;25.60;13.20;;;;;;;-6.15;100.00;100725.03;5074013;28;20032;-78
2024/01/22 00:40:04;;;;;;;32.40;13.80;;;;;;;-5.81;100.00;100768.16;5073677;28;20062;-76
2024/01/22 00:42:29;;;;;;;32.05;14.20;;;;;;;-6.31;100.00;100693.88;5092230;28;20028;-78
2024/01/22 00:44:55;;;;;;;33.45;14.00;;;;;;;-6.13;100.00;100732.81;5077580;28;20035;-77
2024/01/22 00:47:20;;;;;;;26.80;13.60;;;;;;;-5.86;100.00;100784.31;5092171;28;20024;-77
2024/01/22 00:49:45;;;;;;;28.27;13.13;;;;;;;-6.22;100.00;100722.63;5073424;28;20020;-80
2024/01/22 00:52:11;;;;;;;30.80;12.38;;;;;;;-6.48;100.00;100690.75;5073752;28;20024;-77
2024/01/22 00:54:36;;;;;;;34.00;13.70;;;;;;;-6.07;100.00;100751.34;5090601;28;20085;-77
2024/01/22 00:57:02;;;;;;;33.00;13.70;;;;;;;-6.02;100.00;100764.75;5091615;28;20020;-79
2024/01/22 00:59:27;;;;;;;29.98;13.35;;;;;;;-6.18;100.00;100720.19;5073824;28;20480;-77
2024/01/22 01:01:53;;;;;;;28.17;12.13;;;;;;;-6.27;100.00;100694.97;5073965;28;20032;-77
2024/01/22 01:04:18;;;;;;;26.35;12.43;;;;;;;-6.03;100.00;100732.78;5074025;28;20081;-77
2024/01/22 01:06:44;;;;;;;28.42;11.25;;;;;;;-5.86;100.00;100746.66;5091847;28;20036;-77
2024/01/22 01:09:09;;;;;;;20.13;9.35;;;;;;;-5.90;99.88;100754.47;5073932;28;20474;-79
2024/01/22 01:11:34;;;;;;;22.85;10.73;;;;;;;-5.78;99.32;100757.63;5073489;28;20047;-77
2024/01/22 01:14:00;;;;;;;25.35;11.10;;;;;;;-5.96;99.04;100731.38;5073639;28;20024;-78
2024/01/22 01:16:27;;;;;;;23.13;8.70;;;;;;;-5.91;99.54;100735.94;5091216;28;20121;-77
2024/01/22 01:18:53;;;;;;;20.38;8.93;;;;;;;-5.97;99.43;100743.25;5073774;28;20407;-77
2024/01/22 01:21:22;;;;;;;14.43;7.20;;;;;;;-5.95;99.50;100745.63;5073718;28;20028;-77
2024/01/22 01:23:49;;;;;;;27.00;11.90;;;;;;;-6.29;99.37;100691.75;5073354;28;20046;-77
2024/01/22 01:26:14;;;;;;;14.02;7.57;;;;;;;-6.14;98.24;100726.63;5091439;28;20032;-78
2024/01/22 01:28:39;;;;;;;22.83;9.55;;;;;;;-5.91;97.83;100752.09;5091069;28;20028;-77
2024/01/22 01:31:05;;;;;;;22.15;10.52;;;;;;;-6.01;98.10;100750.25;5073101;28;20110;-78
2024/01/22 01:33:30;;;;;;;22.40;10.35;;;;;;;-5.96;97.51;100750.22;5092124;28;20028;-78
2024/01/22 01:35:56;;;;;;;21.80;10.23;;;;;;;-6.20;97.14;100733.09;5091428;28;20020;-77
2024/01/22 01:38:21;;;;;;;27.30;10.25;;;;;;;-6.71;97.53;100655.34;5073442;28;20487;-77
2024/01/22 01:40:47;;;;;;;9.18;5.72;;;;;;;-6.67;97.66;100677.91;5079558;28;20225;-77
2024/01/22 01:43:15;;;;;;;14.32;7.18;;;;;;;-6.03;98.20;100768.56;5076272;28;20044;-78
2024/01/22 01:45:40;;;;;;;18.17;8.95;;;;;;;-6.70;97.83;100658.84;5091305;28;20024;-78
2024/01/22 01:48:06;;;;;;;18.50;7.50;;;;;;;-6.33;98.39;100720.28;5091130;28;20036;-77
2024/01/22 01:50:32;;;;;;;18.55;8.38;;;;;;;-6.57;98.29;100669.78;5073078;28;20020;-77
2024/01/22 01:53:00;;;;;;;19.40;9.70;;;;;;;-6.15;97.78;100743.88;5073047;28;20026;-77
2024/01/22 01:55:25;;;;;;;23.00;8.93;;;;;;;-6.19;98.46;100740.09;5073250;28;20450;-77
2024/01/22 01:57:51;;;;;;;23.20;11.07;;;;;;;-6.59;98.42;100671.97;5072617;28;20028;-79
2024/01/22 02:00:17;;;;;;;22.23;10.95;;;;;;;-6.86;98.74;100623.16;5073406;28;20028;-77
2024/01/22 02:02:42;;;;;;;24.00;11.35;;;;;;;-6.47;97.98;100700.41;5072847;28;20430;-79
2024/01/22 02:05:08;;;;;;;14.40;6.68;;;;;;;-6.42;98.64;100698.50;5093799;28;20081;-78
2024/01/22 02:07:34;;;;;;;16.98;7.32;;;;;;;-6.20;98.92;100735.78;5093198;28;20024;-76
2024/01/22 02:10:00;;;;;;;27.20;10.57;;;;;;;-6.43;98.51;100690.72;5089600;28;20031;-79
2024/01/22 02:12:25;;;;;;;20.15;9.07;;;;;;;-6.26;98.23;100715.38;5094835;28;20024;-79
2024/01/22 02:14:51;;;;;;;23.95;10.98;;;;;;;-6.69;98.54;100639.72;5094882;28;20107;-79
2024/01/22 02:17:16;;;;;;;25.02;10.73;;;;;;;-6.12;99.37;100720.97;5094450;28;20063;-77
2024/01/22 02:19:43;;;;;;;24.60;9.75;;;;;;;-6.36;98.38;100692.03;5076716;28;20127;-76
2024/01/22 02:22:08;;;;;;;20.73;10.68;;;;;;;-6.05;98.72;100735.75;5076519;28;20114;-78
2024/01/22 02:24:34;;;;;;;20.83;9.50;;;;;;;-6.27;98.01;100701.13;5094438;28;20068;-77
2024/01/22 02:26:59;;;;;;;20.85;7.22;;;;;;;-6.44;97.94;100699.84;5076069;28;20539;-76
2024/01/22 02:29:25;;;;;;;21.95;9.35;;;;;;;-6.70;97.32;100662.34;5076613;28;20048;-77
2024/01/22 02:31:52;;;;;;;23.10;11.52;;;;;;;-6.24;98.26;100742.81;5094659;28;20019;-77
2024/01/22 02:34:18;;;;;;;20.80;9.88;;;;;;;-6.36;97.82;100718.94;5076426;28;20028;-76
2024/01/22 02:36:45;;;;;;;20.45;10.15;;;;;;;-6.41;98.87;100699.31;5079429;28;20089;-77
2024/01/22 02:39:11;;;;;;;22.73;10.05;;;;;;;-6.51;98.13;100667.09;5079127;28;20043;-78
2024/01/22 02:41:37;;;;;;;23.95;9.13;;;;;;;-6.31;97.59;100723.47;5093914;28;20445;-78
2024/01/22 02:44:03;;;;;;;17.00;9.38;;;;;;;-6.52;97.91;100701.25;5093112;28;20107;-77
2024/01/22 02:46:29;;;;;;;23.75;11.43;;;;;;;-6.74;98.30;100688.13;5092881;28;20028;-80
2024/01/22 02:48:55;;;;;;;22.38;9.05;;;;;;;-6.62;98.03;100703.94;5076111;28;20024;-81
2024/01/22 02:51:20;;;;;;;22.33;10.15;;;;;;;-7.50;97.96;100548.69;5092544;28;20503;-79
2024/01/22 02:53:46;;;;;;;17.88;8.63;;;;;;;-6.69;98.07;100682.75;5075681;28;20078;-79
2024/01/22 02:56:17;;;;;;;23.85;10.40;;;;;;;-7.09;98.33;100613.00;5092385;28;20491;-79
2024/01/22 02:58:43;;;;;;;18.80;8.40;;;;;;;-6.58;98.58;100705.03;5075766;28;20032;-78
2024/01/22 03:01:08;;;;;;;21.38;10.23;;;;;;;-6.71;98.45;100676.84;5075609;28;20027;-78
2024/01/22 03:03:34;;;;;;;22.60;10.98;;;;;;;-6.33;99.20;100731.81;5075929;28;20115;-78
2024/01/22 03:05:59;;;;;;;16.92;8.38;;;;;;;-6.24;98.88;100738.25;5092254;28;20032;-78
2024/01/22 03:08:25;;;;;;;25.98;11.52;;;;;;;-6.69;98.69;100663.91;5075606;28;20035;-79
2024/01/22 03:10:50;;;;;;;16.67;9.00;;;;;;;-6.22;97.90;100732.59;5074938;28;20028;-79
2024/01/22 03:13:15;;;;;;;28.58;10.57;;;;;;;-6.28;97.49;100739.88;5075391;28;20104;-78
2024/01/22 03:15:42;;;;;;;23.60;9.48;;;;;;;-6.53;97.50;100720.34;5075198;28;20028;-78
2024/01/22 03:18:08;;;;;;;25.75;10.82;;;;;;;-6.80;97.63;100678.47;5093070;28;20051;-78
2024/01/22 03:20:34;;;;;;;18.15;8.25;;;;;;;-6.68;97.31;100716.59;5074907;28;20024;-77
2024/01/22 03:22:59;;;;;;;17.95;7.90;;;;;;;-6.79;97.08;100701.59;5075078;28;20174;-79
2024/01/22 03:25:25;;;;;;;23.52;9.63;;;;;;;-6.89;96.73;100727.69;5074238;28;20024;-79
2024/01/22 03:27:50;;;;;;;21.27;9.68;;;;;;;-6.59;97.14;100770.63;5092351;28;20549;-78
2024/01/22 03:30:16;;;;;;;25.48;11.23;;;;;;;-6.87;96.99;100739.75;5074510;28;20035;-77
2024/01/22 03:32:41;;;;;;;20.90;8.80;;;;;;;-7.09;96.03;100725.81;5092763;28;20060;-78
2024/01/22 03:35:07;;;;;;;8.98;5.43;;;;;;;-7.06;95.68;100746.78;5092897;28;20549;-78
2024/01/22 03:37:32;;;;;;;25.95;9.27;;;;;;;-7.41;95.12;100740.31;5092795;28;20404;-79
2024/01/22 03:39:58;;;;;;;20.45;9.82;;;;;;;-7.73;93.37;100747.81;5074565;28;20439;-77
2024/01/22 03:42:23;;;;;;;28.23;11.65;;;;;;;-8.15;95.06;100688.16;5093201;28;20102;-77
2024/01/22 03:44:49;;;;;;;39.80;14.32;;;;;;;-7.99;96.68;100722.78;5075069;28;20039;-77
2024/01/22 03:47:14;;;;;;;62.45;19.35;;;;;;;-8.20;97.92;100713.09;5067656;28;20536;-77
2024/01/22 03:49:40;;;;;;;47.47;17.20;;;;;;;-8.05;98.70;100736.44;5068981;28;20484;-78
2024/01/22 03:52:06;;;;;;;43.38;15.60;;;;;;;-8.17;99.29;100725.16;5074734;28;20109;-79
2024/01/22 03:54:31;;;;;;;30.42;10.13;;;;;;;-8.14;99.60;100736.19;5091352;28;20046;-77
2024/01/22 03:56:56;;;;;;;57.15;19.58;;;;;;;-8.11;99.50;100730.28;5074641;28;20483;-77
2024/01/22 03:59:22;;;;;;;67.72;21.55;;;;;;;-8.10;99.57;100731.06;5093052;28;20063;-77
2024/01/22 04:01:48;;;;;;;53.50;16.42;;;;;;;-8.31;100.00;100709.59;5074649;28;20019;-77
2024/01/22 04:04:13;;;;;;;43.15;15.60;;;;;;;-8.11;99.66;100721.41;5092748;28;20040;-75
2024/01/22 04:06:39;;;;;;;44.33;14.77;;;;;;;-7.74;100.00;100772.22;5092539;28;20028;-77
2024/01/22 04:09:04;;;;;;;44.58;14.15;;;;;;;-7.78;100.00;100750.50;5073986;28;20115;-76
2024/01/22 04:11:30;;;;;;;28.90;12.45;;;;;;;-7.92;98.88;100738.63;5086947;28;20473;-77
2024/01/22 04:13:55;;;;;;;45.92;10.55;;;;;;;-8.08;98.34;100696.78;5074457;28;20096;-77
2024/01/22 04:16:21;;;;;;;39.33;14.00;;;;;;;-7.74;98.38;100753.44;5073852;28;20048;-77
2024/01/22 04:18:46;;;;;;;26.92;9.18;;;;;;;-7.78;97.96;100755.84;5074338;28;20462;-78
2024/01/22 04:21:12;;;;;;;34.63;14.80;;;;;;;-7.95;98.99;100712.34;5073916;28;20035;-77
2024/01/22 04:23:37;;;;;;;22.77;8.90;;;;;;;-7.96;99.33;100679.38;5083825;28;20027;-77
2024/01/22 04:26:04;;;;;;;19.45;9.02;;;;;;;-7.75;99.01;100690.91;5074017;28;20040;-77
2024/01/22 04:28:29;;;;;;;25.42;9.45;;;;;;;-7.73;98.90;100688.78;5074590;28;20479;-77
2024/01/22 04:30:55;;;;;;;19.15;9.00;;;;;;;-7.42;99.27;100721.81;5074270;28;20082;-78
2024/01/22 04:33:20;;;;;;;18.35;8.93;;;;;;;-7.08;98.47;100765.84;5074541;28;20420;-78
2024/01/22 04:35:46;;;;;;;18.05;8.48;;;;;;;-7.59;97.01;100713.19;5067002;28;20111;-78
2024/01/22 04:38:11;;;;;;;23.08;9.65;;;;;;;-7.56;97.64;100705.44;5065935;28;20029;-77
2024/01/22 04:40:37;;;;;;;18.70;9.25;;;;;;;-7.04;96.61;100793.78;5073600;28;20038;-78
2024/01/22 04:43:03;;;;;;;16.88;8.32;;;;;;;-7.53;96.95;100704.88;5070956;28;20025;-77
2024/01/22 04:45:29;;;;;;;23.38;9.98;;;;;;;-7.11;97.81;100793.22;5076180;28;20484;-77
2024/01/22 04:47:55;;;;;;;21.02;7.95;;;;;;;-7.58;97.18;100702.19;5085342;28;20058;-77
2024/01/22 04:50:21;;;;;;;23.38;8.65;;;;;;;-7.12;97.57;100788.94;5091686;28;20082;-78
2024/01/22 04:52:46;;;;;;;18.35;8.55;;;;;;;-7.77;96.47;100682.31;5073803;28;20495;-79
2024/01/22 04:55:12;;;;;;;19.42;7.55;;;;;;;-7.57;96.71;100721.78;5073755;28;20085;-79
2024/01/22 04:57:38;;;;;;;14.52;6.68;;;;;;;-7.27;96.70;100770.13;5073483;28;20032;-77
2024/01/22 05:00:04;;;;;;;19.55;8.65;;;;;;;-7.24;97.06;100763.44;5090014;28;20038;-78
2024/01/22 05:02:30;;;;;;;15.95;6.72;;;;;;;-7.39;95.85;100774.97;5073180;28;20428;-77
2024/01/22 05:05:00;;;;;;;20.08;8.73;;;;;;;-7.68;93.00;100745.13;5090656;28;20112;-79
2024/01/22 05:07:26;;;;;;;17.75;8.23;;;;;;;-7.87;93.56;100760.91;5080356;28;20036;-78
2024/01/22 05:10:04;;;;;;;17.23;8.00;;;;;;;-7.64;95.38;100793.69;5091024;28;20020;-76
2024/01/22 05:12:30;;;;;;;17.17;8.30;;;;;;;-8.03;97.16;100737.81;5091516;28;20024;-77
2024/01/22 05:14:56;;;;;;;22.15;8.82;;;;;;;-7.55;98.02;100787.56;5072970;28;20563;-77
2024/01/22 05:17:22;;;;;;;19.30;8.48;;;;;;;-7.53;98.39;100766.59;5071814;28;20052;-77
2024/01/22 05:19:47;;;;;;;24.98;8.73;;;;;;;-7.48;98.44;100790.81;5089567;28;20521;-77
2024/01/22 05:22:14;;;;;;;18.95;8.52;;;;;;;-7.77;96.07;100772.75;5089755;28;20028;-76
2024/01/22 05:24:40;;;;;;;9.40;5.70;;;;;;;-7.96;95.23;100796.56;5071629;28;20403;-77
2024/01/22 05:27:08;;;;;;;16.23;7.70;;;;;;;-7.84;97.23;100783.75;5071815;28;20025;-77
2024/01/22 05:29:33;;;;;;;9.32;5.30;;;;;;;-7.65;98.84;100784.84;5071321;28;20020;-76
2024/01/22 05:31:59;;;;;;;6.75;4.55;;;;;;;-7.90;98.60;100723.09;5088931;28;20165;-76
2024/01/22 05:34:24;;;;;;;19.80;9.35;;;;;;;-8.34;98.26;100640.44;5070492;28;20032;-78
2024/01/22 05:36:50;;;;;;;19.95;9.02;;;;;;;-7.77;97.64;100727.16;5088936;28;20496;-77
2024/01/22 05:39:15;;;;;;;19.20;8.65;;;;;;;-7.55;97.53;100770.66;5089773;28;20480;-77
2024/01/22 05:41:41;;;;;;;14.10;7.43;;;;;;;-7.60;97.42;100776.81;5075155;28;20024;-78
2024/01/22 05:44:07;;;;;;;19.10;9.88;;;;;;;-7.41;96.36;100796.69;5079674;28;20549;-77
2024/01/22 05:46:33;;;;;;;19.38;10.25;;;;;;;-7.45;96.00;100798.31;5094457;28;20032;-77
2024/01/22 05:48:59;;;;;;;15.75;8.15;;;;;;;-7.62;94.45;100813.84;5076576;28;20032;-75
2024/01/22 05:51:25;;;;;;;18.20;7.38;;;;;;;-8.18;91.50;100772.59;5076288;28;20043;-77
2024/01/22 05:53:51;;;;;;;13.00;5.82;;;;;;;-8.86;90.89;100733.44;5094575;28;20094;-77
2024/01/22 05:56:25;;;;;;;18.27;6.87;;;;;;;-8.70;91.33;100786.84;5094540;28;20046;-76
2024/01/22 05:58:54;;;;;;;15.13;6.45;;;;;;;-9.06;92.08;100753.66;5094752;28;20480;-77
2024/01/22 06:01:21;;;;;;;20.38;9.40;;;;;;;-8.88;94.35;100776.53;5093109;28;20108;-75
2024/01/22 06:03:46;;;;;;;20.97;8.87;;;;;;;-9.22;94.73;100730.50;5094532;28;20046;-76
2024/01/22 06:06:13;;;;;;;13.93;8.00;;;;;;;-9.18;96.86;100694.16;5076397;28;20492;-77
2024/01/22 06:08:41;;;;;;;13.80;6.37;;;;;;;-8.39;98.35;100778.97;5076206;28;20042;-76
2024/01/22 06:11:06;;;;;;;22.67;9.60;;;;;;;-8.17;98.78;100778.78;5076460;28;20020;-76
2024/01/22 06:13:32;;;;;;;16.95;6.95;;;;;;;-7.93;97.16;100799.53;5094265;28;20105;-76
2024/01/22 06:15:58;;;;;;;14.63;7.13;;;;;;;-7.94;96.67;100781.00;5075780;28;20020;-76
2024/01/22 06:18:24;;;;;;;14.00;6.68;;;;;;;-8.11;95.82;100746.34;5075588;28;20036;-76
2024/01/22 06:20:49;;;;;;;16.95;8.45;;;;;;;-7.82;96.00;100782.38;5075792;28;20519;-78
2024/01/22 06:23:14;;;;;;;19.25;8.10;;;;;;;-7.68;95.82;100788.06;5075880;28;20031;-76
2024/01/22 06:25:40;;;;;;;31.15;13.40;;;;;;;-7.87;95.07;100730.59;5093807;28;20028;-76
2024/01/22 06:28:05;;;;;;;17.67;8.38;;;;;;;-7.73;94.36;100750.50;5076321;28;20028;-77
2024/01/22 06:30:31;;;;;;;27.35;11.50;;;;;;;-7.50;93.83;100811.72;5093866;28;20118;-77
2024/01/22 06:32:56;;;;;;;25.55;11.70;;;;;;;-7.45;93.89;100798.31;5093828;28;20032;-78
2024/01/22 06:35:22;;;;;;;13.25;6.75;;;;;;;-7.69;94.35;100748.88;5093969;28;20165;-76
2024/01/22 06:37:47;;;;;;;26.23;10.25;;;;;;;-7.41;93.23;100771.72;5094008;28;20032;-76
2024/01/22 06:40:16;;;;;;;27.70;10.93;;;;;;;-7.34;93.05;100782.19;5075667;28;20032;-77
2024/01/22 06:42:41;;;;;;;17.80;9.27;;;;;;;-7.27;92.46;100782.75;5094243;28;20047;-76
2024/01/22 06:45:08;;;;;;;32.40;12.27;;;;;;;-7.24;93.12;100768.81;5075507;28;20406;-76
2024/01/22 06:47:34;;;;;;;22.75;10.32;;;;;;;-7.03;92.49;100789.22;5059574;28;20025;-77
2024/01/22 06:49:59;;;;;;;23.58;10.82;;;;;;;-7.31;92.47;100739.53;5098092;28;20020;-76
2024/01/22 06:52:25;;;;;;;15.88;7.50;;;;;;;-7.17;91.09;100775.50;5096452;28;20024;-75
2024/01/22 06:54:51;;;;;;;14.80;7.05;;;;;;;-7.32;88.11;100829.19;5075628;28;20403;-77
2024/01/22 06:57:16;;;;;;;14.38;6.88;;;;;;;-7.77;88.61;100772.75;5075444;28;20024;-77
2024/01/22 06:59:42;;;;;;;14.23;6.88;;;;;;;-7.41;89.09;100825.41;5093074;28;20028;-77
2024/01/22 07:02:07;;;;;;;19.27;7.15;;;;;;;-7.34;90.84;100825.16;5075545;28;20413;-76
2024/01/22 07:04:33;;;;;;;13.98;6.60;;;;;;;-7.30;92.54;100800.22;5075438;28;20027;-76
2024/01/22 07:06:58;;;;;;;18.83;6.70;;;;;;;-7.22;92.46;100817.66;5093654;28;20519;-78
2024/01/22 07:09:24;;;;;;;16.75;8.55;;;;;;;-7.47;92.78;100767.41;5075244;28;20035;-77
2024/01/22 07:11:49;;;;;;;23.75;9.63;;;;;;;-6.84;92.14;100827.88;5093478;28;20111;-77
2024/01/22 07:14:15;;;;;;;18.75;7.50;;;;;;;-7.09;92.73;100752.69;5074950;28;20415;-77
2024/01/22 07:16:40;;;;;;;17.35;8.02;;;;;;;-6.55;91.72;100822.75;5074908;28;20412;-77
2024/01/22 07:19:06;;;;;;;27.13;12.38;;;;;;;-6.33;92.68;100799.03;5093185;28;20012;-78
2024/01/22 07:21:31;;;;;;;28.83;11.15;;;;;;;-6.11;90.64;100768.31;5075069;28;20047;-77
2024/01/22 07:23:57;;;;;;;32.78;12.00;;;;;;;-6.05;90.31;100751.06;5092775;28;20032;-77
2024/01/22 07:26:22;;;;;;;23.60;9.75;;;;;;;-5.30;88.60;100829.78;5092475;28;20507;-77
2024/01/22 07:28:47;;;;;;;31.10;12.27;;;;;;;-5.37;86.92;100773.53;5092987;28;20023;-79
2024/01/22 07:31:13;;;;;;;26.00;10.90;;;;;;;-5.23;87.68;100776.38;5092743;28;20036;-79
2024/01/22 07:33:38;;;;;;;21.73;9.40;;;;;;;-5.10;88.00;100754.19;5092657;28;20568;-79
2024/01/22 07:36:04;;;;;;;22.55;10.38;;;;;;;-4.64;87.66;100782.34;5092716;28;20042;-78
2024/01/22 07:38:29;;;;;;;25.30;11.05;;;;;;;-4.60;86.65;100790.66;5091094;28;20171;-77
2024/01/22 07:40:55;;;;;;;21.52;10.07;;;;;;;-4.39;86.91;100802.03;5074488;28;20060;-79
2024/01/22 07:43:20;;;;;;;21.30;10.10;;;;;;;-4.04;86.74;100815.19;5074594;28;20453;-78
2024/01/22 07:45:46;;;;;;;25.05;9.52;;;;;;;-3.89;84.88;100819.56;5092872;28;20024;-77
2024/01/22 07:48:11;;;;;;;23.00;9.85;;;;;;;-3.89;85.27;100816.88;5092621;28;20024;-78
2024/01/22 07:50:37;;;;;;;14.77;6.60;;;;;;;-3.65;84.11;100830.34;5092628;28;20077;-78
2024/01/22 07:53:03;;;;;;;16.38;8.05;;;;;;;-3.70;82.70;100820.41;5092612;28;20499;-78
2024/01/22 07:55:29;;;;;;;21.65;10.05;;;;;;;-3.46;83.76;100828.47;5092758;28;20050;-78
2024/01/22 07:57:54;;;;;;;24.60;10.80;;;;;;;-3.56;83.42;100767.28;5074411;28;20484;-78
2024/01/22 08:00:20;;;;;;;17.98;8.93;;;;;;;-3.19;82.38;100803.47;5074155;28;20115;-78
2024/01/22 08:02:45;;;;;;;16.48;8.55;;;;;;;-2.74;83.66;100824.41;5073578;28;20031;-78
2024/01/22 08:05:13;;;;;;;22.42;9.35;;;;;;;-2.65;81.91;100819.91;5092225;28;20043;-78
2024/01/22 08:07:39;;;;;;;19.83;9.38;;;;;;;-2.53;81.15;100814.03;5092102;28;20020;-78
2024/01/22 08:10:04;;;;;;;16.98;8.18;;;;;;;-2.33;78.76;100800.13;5073930;28;20016;-80
2024/01/22 08:12:30;;;;;;;22.67;11.18;;;;;;;-2.37;78.72;100788.31;5073965;28;20035;-78
2024/01/22 08:14:55;;;;;;;25.17;10.80;;;;;;;-2.21;77.07;100815.88;5073910;28;20024;-78
2024/01/22 08:17:20;;;;;;;22.15;9.88;;;;;;;-2.35;74.79;100769.06;5092012;28;20051;-77
2024/01/22 08:19:46;;;;;;;25.30;11.98;;;;;;;-2.14;74.65;100792.72;5092246;28;20028;-79
2024/01/22 08:22:11;;;;;;;28.92;13.88;;;;;;;-1.93;75.88;100803.94;5073743;28;20549;-77
2024/01/22 08:24:37;;;;;;;55.65;26.70;;;;;;;-1.82;75.21;100821.63;5073692;28;20028;-77
2024/01/22 08:27:03;;;;;;;22.05;11.85;;;;;;;-2.33;76.36;100764.13;5092056;28;20024;-77
2024/01/22 08:29:28;;;;;;;19.83;9.65;;;;;;;-2.50;76.13;100762.03;5073864;28;20047;-78
2024/01/22 08:31:54;;;;;;;19.33;10.60;;;;;;;-2.26;77.23;100808.66;5073738;28;20154;-79
2024/01/22 08:34:20;;;;;;;26.08;10.80;;;;;;;-2.34;77.30;100766.03;5091737;28;20032;-78
2024/01/22 08:36:45;;;;;;;20.80;11.27;;;;;;;-1.82;76.68;100801.84;5073624;28;20089;-78
2024/01/22 08:39:10;;;;;;;22.92;11.85;;;;;;;-2.05;75.42;100741.38;5091568;28;20466;-79
2024/01/22 08:41:39;;;;;;;18.80;9.55;;;;;;;-1.57;76.13;100792.38;5073608;28;20032;-78
2024/01/22 08:44:05;;;;;;;20.27;11.25;;;;;;;-1.79;74.92;100744.34;5090315;28;20073;-77
2024/01/22 08:46:32;;;;;;;20.88;11.13;;;;;;;-1.32;75.11;100794.50;5073430;28;20403;-77
2024/01/22 08:48:57;;;;;;;22.85;9.65;;;;;;;-1.47;76.10;100737.94;5090297;28;20020;-77
2024/01/22 08:51:23;;;;;;;24.10;12.00;;;;;;;-1.15;74.90;100758.63;5098341;28;20024;-77
2024/01/22 08:53:48;;;;;;;17.42;8.65;;;;;;;-0.98;75.43;100756.81;5104602;28;20477;-78
2024/01/22 08:56:14;;;;;;;16.70;8.32;;;;;;;-0.63;73.81;100781.47;5072986;28;20047;-79
2024/01/22 08:58:40;;;;;;;17.08;8.73;;;;;;;-0.16;72.69;100812.50;5083667;28;20032;-78
2024/01/22 09:01:06;;;;;;;19.88;10.38;;;;;;;-0.01;69.44;100790.38;5085310;28;20071;-78
2024/01/22 09:03:32;;;;;;;17.10;9.18;;;;;;;0.14;67.86;100800.81;5091521;28;20047;-78
2024/01/22 09:06:01;;;;;;;18.02;8.65;;;;;;;0.27;66.62;100809.94;5089723;28;20094;-77
2024/01/22 09:08:27;;;;;;;17.30;7.95;;;;;;;0.16;65.07;100778.75;5089925;28;20020;-78
2024/01/22 09:10:53;;;;;;;17.15;8.15;;;;;;;0.48;64.83;100805.53;5089914;28;20086;-80
2024/01/22 09:13:19;;;;;;;14.48;8.00;;;;;;;0.34;63.33;100761.34;5072807;28;20020;-79
2024/01/22 09:15:45;;;;;;;15.85;9.05;;;;;;;0.65;62.25;100774.81;5090752;28;20040;-75
2024/01/22 09:18:11;;;;;;;19.65;8.57;;;;;;;1.08;60.71;100791.16;5085687;28;20063;-79
2024/01/22 09:20:36;;;;;;;16.60;9.55;;;;;;;0.71;59.96;100716.44;5070521;28;20025;-81
2024/01/22 09:23:01;;;;;;;13.15;7.97;;;;;;;0.88;60.02;100745.53;5069284;28;20085;-78
2024/01/22 09:25:27;;;;;;;18.15;9.23;;;;;;;1.02;60.43;100754.34;5070717;28;20029;-78
2024/01/22 09:27:52;;;;;;;22.98;11.70;;;;;;;1.36;59.50;100772.50;5069645;28;20027;-78
2024/01/22 09:30:18;;;;;;;26.98;12.52;;;;;;;1.55;59.75;100776.47;5070846;28;20399;-78
2024/01/22 09:32:43;;;;;;;30.20;13.90;;;;;;;1.59;59.57;100752.91;5069771;28;20079;-78
2024/01/22 09:35:09;;;;;;;53.22;21.48;;;;;;;0.72;62.08;100607.28;5069050;28;20033;-77
2024/01/22 09:37:34;;;;;;;23.77;10.93;;;;;;;1.50;63.55;100722.19;5069552;28;20101;-77
2024/01/22 09:40:00;;;;;;;20.15;10.63;;;;;;;1.34;64.56;100703.94;5069606;28;20024;-78
2024/01/22 09:42:26;;;;;;;20.35;9.65;;;;;;;1.60;63.87;100764.59;5069250;28;20519;-77
2024/01/22 09:44:53;;;;;;;53.22;18.25;;;;;;;1.04;63.24;100671.22;5069394;28;20123;-78
2024/01/22 09:47:22;;;;;;;20.42;10.60;;;;;;;1.38;64.36;100743.84;5070939;28;20532;-77
2024/01/22 09:49:47;;;;;;;17.73;10.02;;;;;;;1.17;63.37;100735.56;5069047;28;20090;-78
2024/01/22 09:52:16;;;;;;;19.10;10.30;;;;;;;1.47;62.77;100752.78;5069325;28;20032;-78
2024/01/22 09:54:42;;;;;;;19.88;9.85;;;;;;;1.71;61.92;100745.97;5070337;28;20032;-77
2024/01/22 09:57:18;;;;;;;21.58;10.18;;;;;;;1.83;59.62;100743.34;5069200;28;20496;-76
2024/01/22 09:59:44;;;;;;;20.17;10.10;;;;;;;1.85;60.42;100732.91;5069290;28;20024;-78
2024/01/22 10:02:14;;;;;;;23.02;11.07;;;;;;;1.38;60.25;100648.53;5069316;28;20047;-77
2024/01/22 10:04:40;;;;;;;18.42;10.25;;;;;;;1.40;60.49;100662.59;5069070;28;20024;-77
2024/01/22 10:07:07;;;;;;;19.50;9.50;;;;;;;1.53;61.42;100717.97;5068972;28;20017;-78
2024/01/22 10:09:33;;;;;;;33.08;16.10;;;;;;;1.35;60.41;100702.84;5069104;28;20017;-77
2024/01/22 10:11:58;;;;;;;70.75;29.42;;;;;;;0.99;60.02;100676.03;5070705;28;20025;-76
2024/01/22 10:14:33;;;;;;;28.50;16.08;;;;;;;1.51;60.38;100718.31;5070118;28;20106;-77
2024/01/22 10:17:17;;;;;;;23.20;10.70;;;;;;;1.38;61.34;100704.91;5068809;28;20427;-78
2024/01/22 10:19:46;;;;;;;22.98;11.65;;;;;;;1.56;59.87;100709.19;5056923;28;20194;-78
2024/01/22 10:22:14;;;;;;;24.25;11.00;;;;;;;1.34;61.33;100674.81;5068870;28;20052;-77
2024/01/22 10:24:40;;;;;;;20.83;10.48;;;;;;;1.37;61.03;100717.72;5071448;28;20035;-77
2024/01/22 10:27:13;;;;;;;22.85;10.82;;;;;;;1.51;60.73;100718.31;5073840;28;20033;-77
2024/01/22 10:29:39;;;;;;;22.38;11.35;;;;;;;1.37;61.73;100706.03;5074027;28;20081;-78
2024/01/22 10:32:04;;;;;;;27.80;11.18;;;;;;;1.31;61.82;100689.09;5073621;28;20111;-78
2024/01/22 10:34:41;;;;;;;24.90;12.63;;;;;;;1.09;61.83;100667.50;5072305;28;20029;-77
2024/01/22 10:37:11;;;;;;;19.38;10.60;;;;;;;1.46;62.33;100718.50;5073404;28;20062;-79
2024/01/22 10:39:42;;;;;;;21.80;11.60;;;;;;;1.64;62.90;100722.75;5072342;28;20111;-79
2024/01/22 10:42:12;;;;;;;22.15;12.10;;;;;;;1.50;64.28;100716.72;5073779;28;20062;-78
2024/01/22 10:44:40;;;;;;;25.45;14.23;;;;;;;1.03;63.24;100650.56;5073616;28;20614;-78
2024/01/22 10:47:06;;;;;;;28.90;15.45;;;;;;;1.05;63.61;100681.00;5072243;28;20519;-77
2024/01/22 10:49:32;;;;;;;27.98;14.65;;;;;;;1.17;63.85;100678.38;5073600;28;20032;-78
2024/01/22 10:52:05;;;;;;;29.58;14.50;;;;;;;1.13;65.63;100660.31;5075614;28;20020;-77
2024/01/22 10:54:31;;;;;;;30.85;16.50;;;;;;;0.87;65.17;100635.09;5074333;28;20389;-76
2024/01/22 10:57:14;;;;;;;35.28;16.00;;;;;;;1.06;65.34;100681.78;5072152;28;20029;-78
2024/01/22 10:59:48;;;;;;;24.08;13.35;;;;;;;1.19;66.57;100670.72;5071910;28;20021;-78
2024/01/22 11:02:21;;;;;;;28.40;14.65;;;;;;;1.35;68.03;100684.56;5072147;28;20416;-78
2024/01/22 11:04:47;;;;;;;26.52;14.25;;;;;;;1.28;68.43;100678.81;5072931;28;20055;-77
2024/01/22 11:07:12;;;;;;;22.35;12.80;;;;;;;1.33;69.35;100680.56;5073218;28;20056;-77
2024/01/22 11:09:39;;;;;;;25.58;12.30;;;;;;;0.95;69.83;100628.84;5071738;28;20507;-78